sensor_id;sensor_type;location;lat;lon;timestamp;P1;durP1;ratioP1;P2;durP2;ratioP2
10343;SDS011;5217;43.960;10.954;2023-05-13T00:01:57;1.80;;;1.40;;
10343;SDS011;5217;43.960;10.954;2023-05-13T00:04:27;5.00;;;1.60;;
10343;SDS011;5217;43.960;10.954;2023-05-13T00:06:56;1.90;;;1.40;;
10343;SDS011;5217;43.960;10.954;2023-05-13T00:09:24;2.20;;;1.40;;
10343;SDS011;5217;43.960;10.954;2023-05-13T00:11:53;2.60;;;1.50;;
10343;SDS011;5217;43.960;10.954;2023-05-13T00:14:21;3.67;;;1.77;;
10343;SDS011;5217;43.960;10.954;2023-05-13T00:16:49;1.40;;;1.30;;
10343;SDS011;5217;43.960;10.954;2023-05-13T00:19:18;2.83;;;1.40;;
10343;SDS011;5217;43.960;10.954;2023-05-13T00:21:47;1.60;;;1.43;;
10343;SDS011;5217;43.960;10.954;2023-05-13T00:24:16;3.33;;;1.60;;
10343;SDS011;5217;43.960;10.954;2023-05-13T00:26:44;2.00;;;1.23;;
10343;SDS011;5217;43.960;10.954;2023-05-13T00:29:13;2.10;;;1.50;;
10343;SDS011;5217;43.960;10.954;2023-05-13T00:31:41;3.17;;;1.30;;
10343;SDS011;5217;43.960;10.954;2023-05-13T00:34:09;2.43;;;1.40;;
10343;SDS011;5217;43.960;10.954;2023-05-13T00:36:38;2.70;;;1.40;;
10343;SDS011;5217;43.960;10.954;2023-05-13T00:39:07;3.60;;;1.50;;
10343;SDS011;5217;43.960;10.954;2023-05-13T00:41:36;2.83;;;1.30;;
10343;SDS011;5217;43.960;10.954;2023-05-13T00:44:05;3.77;;;1.60;;
10343;SDS011;5217;43.960;10.954;2023-05-13T00:46:33;1.83;;;1.40;;
10343;SDS011;5217;43.960;10.954;2023-05-13T00:49:02;1.37;;;1.27;;
10343;SDS011;5217;43.960;10.954;2023-05-13T00:51:31;2.63;;;1.60;;
10343;SDS011;5217;43.960;10.954;2023-05-13T00:54:00;1.33;;;1.20;;
10343;SDS011;5217;43.960;10.954;2023-05-13T00:56:30;3.13;;;1.60;;
10343;SDS011;5217;43.960;10.954;2023-05-13T00:58:58;2.73;;;1.40;;
10343;SDS011;5217;43.960;10.954;2023-05-13T01:01:29;1.73;;;1.30;;
10343;SDS011;5217;43.960;10.954;2023-05-13T01:04:08;1.93;;;1.40;;
10343;SDS011;5217;43.960;10.954;2023-05-13T01:06:46;2.40;;;1.17;;
10343;SDS011;5217;43.960;10.954;2023-05-13T01:09:20;2.10;;;1.40;;
10343;SDS011;5217;43.960;10.954;2023-05-13T01:11:56;1.20;;;1.10;;
10343;SDS011;5217;43.960;10.954;2023-05-13T01:14:31;1.67;;;1.20;;
10343;SDS011;5217;43.960;10.954;2023-05-13T01:17:04;1.20;;;1.10;;
10343;SDS011;5217;43.960;10.954;2023-05-13T01:19:41;1.00;;;0.90;;
10343;SDS011;5217;43.960;10.954;2023-05-13T01:22:14;1.47;;;1.27;;
10343;SDS011;5217;43.960;10.954;2023-05-13T01:24:43;1.33;;;0.97;;
10343;SDS011;5217;43.960;10.954;2023-05-13T01:27:12;2.27;;;1.23;;
10343;SDS011;5217;43.960;10.954;2023-05-13T01:29:41;1.23;;;1.13;;
10343;SDS011;5217;43.960;10.954;2023-05-13T01:32:10;2.07;;;1.10;;
10343;SDS011;5217;43.960;10.954;2023-05-13T01:34:39;1.27;;;1.00;;
10343;SDS011;5217;43.960;10.954;2023-05-13T01:37:08;1.73;;;1.20;;
10343;SDS011;5217;43.960;10.954;2023-05-13T01:39:38;2.80;;;1.40;;
10343;SDS011;5217;43.960;10.954;2023-05-13T01:42:07;1.90;;;1.10;;
10343;SDS011;5217;43.960;10.954;2023-05-13T01:44:35;1.90;;;1.20;;
10343;SDS011;5217;43.960;10.954;2023-05-13T01:47:04;1.70;;;1.10;;
10343;SDS011;5217;43.960;10.954;2023-05-13T01:49:32;1.37;;;1.10;;
10343;SDS011;5217;43.960;10.954;2023-05-13T01:52:01;2.73;;;1.30;;
10343;SDS011;5217;43.960;10.954;2023-05-13T01:54:29;2.50;;;1.47;;
10343;SDS011;5217;43.960;10.954;2023-05-13T01:56:59;1.80;;;1.30;;
10343;SDS011;5217;43.960;10.954;2023-05-13T01:59:28;2.13;;;1.50;;
10343;SDS011;5217;43.960;10.954;2023-05-13T02:01:57;1.90;;;1.20;;
10343;SDS011;5217;43.960;10.954;2023-05-13T02:04:25;1.43;;;1.10;;
10343;SDS011;5217;43.960;10.954;2023-05-13T02:06:53;2.83;;;1.10;;
10343;SDS011;5217;43.960;10.954;2023-05-13T02:09:22;2.67;;;1.27;;
10343;SDS011;5217;43.960;10.954;2023-05-13T02:11:50;1.83;;;1.30;;
10343;SDS011;5217;43.960;10.954;2023-05-13T02:14:20;2.57;;;1.20;;
10343;SDS011;5217;43.960;10.954;2023-05-13T02:16:48;1.37;;;1.20;;
10343;SDS011;5217;43.960;10.954;2023-05-13T02:19:16;2.07;;;1.30;;
10343;SDS011;5217;43.960;10.954;2023-05-13T02:21:45;1.40;;;1.03;;
10343;SDS011;5217;43.960;10.954;2023-05-13T02:24:13;1.90;;;1.30;;
10343;SDS011;5217;43.960;10.954;2023-05-13T02:26:42;1.20;;;1.10;;
10343;SDS011;5217;43.960;10.954;2023-05-13T02:29:10;1.60;;;1.13;;
10343;SDS011;5217;43.960;10.954;2023-05-13T02:31:40;2.63;;;1.20;;
10343;SDS011;5217;43.960;10.954;2023-05-13T02:34:08;1.97;;;1.03;;
10343;SDS011;5217;43.960;10.954;2023-05-13T02:36:37;1.53;;;1.00;;
10343;SDS011;5217;43.960;10.954;2023-05-13T02:39:05;2.80;;;1.50;;
10343;SDS011;5217;43.960;10.954;2023-05-13T02:41:33;2.23;;;1.37;;
10343;SDS011;5217;43.960;10.954;2023-05-13T02:44:02;1.30;;;1.20;;
10343;SDS011;5217;43.960;10.954;2023-05-13T02:46:31;1.67;;;1.27;;
10343;SDS011;5217;43.960;10.954;2023-05-13T02:49:01;2.10;;;1.20;;
10343;SDS011;5217;43.960;10.954;2023-05-13T02:51:29;2.07;;;1.10;;
10343;SDS011;5217;43.960;10.954;2023-05-13T02:53:57;2.17;;;1.30;;
10343;SDS011;5217;43.960;10.954;2023-05-13T02:56:26;1.70;;;1.40;;
10343;SDS011;5217;43.960;10.954;2023-05-13T02:58:54;3.20;;;1.03;;
10343;SDS011;5217;43.960;10.954;2023-05-13T03:01:22;1.93;;;1.40;;
10343;SDS011;5217;43.960;10.954;2023-05-13T03:03:52;1.80;;;1.20;;
10343;SDS011;5217;43.960;10.954;2023-05-13T03:06:21;2.23;;;1.20;;
10343;SDS011;5217;43.960;10.954;2023-05-13T03:08:50;2.10;;;1.37;;
10343;SDS011;5217;43.960;10.954;2023-05-13T03:11:18;2.87;;;1.30;;
10343;SDS011;5217;43.960;10.954;2023-05-13T03:13:47;1.60;;;1.30;;
10343;SDS011;5217;43.960;10.954;2023-05-13T03:16:15;1.83;;;1.40;;
10343;SDS011;5217;43.960;10.954;2023-05-13T03:18:43;1.83;;;1.37;;
10343;SDS011;5217;43.960;10.954;2023-05-13T03:21:12;2.30;;;1.20;;
10343;SDS011;5217;43.960;10.954;2023-05-13T03:23:42;1.77;;;1.40;;
10343;SDS011;5217;43.960;10.954;2023-05-13T03:26:10;2.57;;;1.20;;
10343;SDS011;5217;43.960;10.954;2023-05-13T03:28:38;1.47;;;1.20;;
10343;SDS011;5217;43.960;10.954;2023-05-13T03:31:07;1.67;;;1.30;;
10343;SDS011;5217;43.960;10.954;2023-05-13T03:33:35;2.57;;;1.20;;
10343;SDS011;5217;43.960;10.954;2023-05-13T03:36:04;1.30;;;1.20;;
10343;SDS011;5217;43.960;10.954;2023-05-13T03:38:33;2.43;;;1.23;;
10343;SDS011;5217;43.960;10.954;2023-05-13T03:41:03;1.60;;;1.30;;
10343;SDS011;5217;43.960;10.954;2023-05-13T03:43:31;2.83;;;1.20;;
10343;SDS011;5217;43.960;10.954;2023-05-13T03:45:59;2.97;;;1.10;;
10343;SDS011;5217;43.960;10.954;2023-05-13T03:48:28;2.23;;;1.40;;
10343;SDS011;5217;43.960;10.954;2023-05-13T03:50:56;1.70;;;1.33;;
10343;SDS011;5217;43.960;10.954;2023-05-13T03:53:24;2.20;;;1.40;;
10343;SDS011;5217;43.960;10.954;2023-05-13T03:55:53;2.00;;;1.40;;
10343;SDS011;5217;43.960;10.954;2023-05-13T03:58:23;1.83;;;1.40;;
10343;SDS011;5217;43.960;10.954;2023-05-13T04:00:51;2.73;;;1.40;;
10343;SDS011;5217;43.960;10.954;2023-05-13T04:03:19;1.87;;;1.20;;
10343;SDS011;5217;43.960;10.954;2023-05-13T04:05:48;2.17;;;1.37;;
10343;SDS011;5217;43.960;10.954;2023-05-13T04:08:18;1.80;;;1.30;;
10343;SDS011;5217;43.960;10.954;2023-05-13T04:10:46;2.10;;;1.37;;
10343;SDS011;5217;43.960;10.954;2023-05-13T04:13:15;2.33;;;1.10;;
10343;SDS011;5217;43.960;10.954;2023-05-13T04:15:45;1.47;;;1.37;;
10343;SDS011;5217;43.960;10.954;2023-05-13T04:18:13;2.03;;;1.57;;
10343;SDS011;5217;43.960;10.954;2023-05-13T04:20:42;2.20;;;1.50;;
10343;SDS011;5217;43.960;10.954;2023-05-13T04:23:10;1.20;;;1.10;;
10343;SDS011;5217;43.960;10.954;2023-05-13T04:25:39;1.80;;;1.47;;
10343;SDS011;5217;43.960;10.954;2023-05-13T04:28:08;1.20;;;1.10;;
10343;SDS011;5217;43.960;10.954;2023-05-13T04:30:36;2.27;;;1.20;;
10343;SDS011;5217;43.960;10.954;2023-05-13T04:33:06;1.60;;;1.10;;
10343;SDS011;5217;43.960;10.954;2023-05-13T04:35:35;1.40;;;1.30;;
10343;SDS011;5217;43.960;10.954;2023-05-13T04:38:03;1.90;;;1.10;;
10343;SDS011;5217;43.960;10.954;2023-05-13T04:40:32;3.00;;;1.20;;
10343;SDS011;5217;43.960;10.954;2023-05-13T04:43:00;2.30;;;1.20;;
10343;SDS011;5217;43.960;10.954;2023-05-13T04:45:29;1.93;;;1.43;;
10343;SDS011;5217;43.960;10.954;2023-05-13T04:47:58;2.50;;;1.40;;
10343;SDS011;5217;43.960;10.954;2023-05-13T04:50:27;2.57;;;1.47;;
10343;SDS011;5217;43.960;10.954;2023-05-13T04:52:57;2.30;;;1.20;;
10343;SDS011;5217;43.960;10.954;2023-05-13T04:55:26;1.60;;;1.50;;
10343;SDS011;5217;43.960;10.954;2023-05-13T04:57:54;2.07;;;1.50;;
10343;SDS011;5217;43.960;10.954;2023-05-13T05:00:22;2.57;;;1.40;;
10343;SDS011;5217;43.960;10.954;2023-05-13T05:02:51;1.73;;;1.20;;
10343;SDS011;5217;43.960;10.954;2023-05-13T05:05:20;2.60;;;1.27;;
10343;SDS011;5217;43.960;10.954;2023-05-13T05:07:49;1.50;;;1.23;;
10343;SDS011;5217;43.960;10.954;2023-05-13T05:10:18;1.83;;;1.30;;
10343;SDS011;5217;43.960;10.954;2023-05-13T05:12:47;2.30;;;1.30;;
10343;SDS011;5217;43.960;10.954;2023-05-13T05:15:16;1.97;;;1.20;;
10343;SDS011;5217;43.960;10.954;2023-05-13T05:17:44;2.20;;;1.40;;
10343;SDS011;5217;43.960;10.954;2023-05-13T05:20:13;2.10;;;1.27;;
10343;SDS011;5217;43.960;10.954;2023-05-13T05:22:42;2.87;;;1.33;;
10343;SDS011;5217;43.960;10.954;2023-05-13T05:25:11;1.60;;;1.20;;
10343;SDS011;5217;43.960;10.954;2023-05-13T05:27:40;3.13;;;1.30;;
10343;SDS011;5217;43.960;10.954;2023-05-13T05:30:09;2.40;;;1.40;;
10343;SDS011;5217;43.960;10.954;2023-05-13T05:32:38;1.57;;;1.17;;
10343;SDS011;5217;43.960;10.954;2023-05-13T05:35:07;1.43;;;1.20;;
10343;SDS011;5217;43.960;10.954;2023-05-13T05:37:36;2.10;;;1.20;;
10343;SDS011;5217;43.960;10.954;2023-05-13T05:40:05;2.23;;;1.37;;
10343;SDS011;5217;43.960;10.954;2023-05-13T05:42:35;2.63;;;1.40;;
10343;SDS011;5217;43.960;10.954;2023-05-13T05:45:05;2.17;;;1.67;;
10343;SDS011;5217;43.960;10.954;2023-05-13T05:47:34;2.80;;;1.60;;
10343;SDS011;5217;43.960;10.954;2023-05-13T05:50:02;1.40;;;1.30;;
10343;SDS011;5217;43.960;10.954;2023-05-13T05:52:31;1.80;;;1.30;;
10343;SDS011;5217;43.960;10.954;2023-05-13T05:54:59;2.93;;;1.40;;
10343;SDS011;5217;43.960;10.954;2023-05-13T05:57:28;4.33;;;1.53;;
10343;SDS011;5217;43.960;10.954;2023-05-13T05:59:58;2.30;;;1.77;;
10343;SDS011;5217;43.960;10.954;2023-05-13T06:02:26;2.20;;;2.00;;
10343;SDS011;5217;43.960;10.954;2023-05-13T06:04:55;2.40;;;2.20;;
10343;SDS011;5217;43.960;10.954;2023-05-13T06:07:23;3.13;;;2.60;;
10343;SDS011;5217;43.960;10.954;2023-05-13T06:09:52;3.73;;;2.60;;
10343;SDS011;5217;43.960;10.954;2023-05-13T06:12:20;2.63;;;2.43;;
10343;SDS011;5217;43.960;10.954;2023-05-13T06:14:48;4.30;;;2.80;;
10343;SDS011;5217;43.960;10.954;2023-05-13T06:17:18;2.90;;;2.60;;
10343;SDS011;5217;43.960;10.954;2023-05-13T06:19:46;4.33;;;3.00;;
10343;SDS011;5217;43.960;10.954;2023-05-13T06:22:14;3.00;;;2.70;;
10343;SDS011;5217;43.960;10.954;2023-05-13T06:24:43;3.53;;;2.50;;
10343;SDS011;5217;43.960;10.954;2023-05-13T06:27:11;3.17;;;2.57;;
10343;SDS011;5217;43.960;10.954;2023-05-13T06:29:40;2.70;;;2.50;;
10343;SDS011;5217;43.960;10.954;2023-05-13T06:32:08;2.90;;;2.60;;
10343;SDS011;5217;43.960;10.954;2023-05-13T06:34:38;2.83;;;2.63;;
10343;SDS011;5217;43.960;10.954;2023-05-13T06:37:10;5.60;;;3.23;;
10343;SDS011;5217;43.960;10.954;2023-05-13T06:39:39;4.37;;;2.90;;
10343;SDS011;5217;43.960;10.954;2023-05-13T06:42:07;3.20;;;2.90;;
10343;SDS011;5217;43.960;10.954;2023-05-13T06:44:39;3.83;;;3.00;;
10343;SDS011;5217;43.960;10.954;2023-05-13T06:47:07;4.13;;;2.70;;
10343;SDS011;5217;43.960;10.954;2023-05-13T06:49:41;4.03;;;2.57;;
10343;SDS011;5217;43.960;10.954;2023-05-13T06:52:10;3.07;;;2.60;;
10343;SDS011;5217;43.960;10.954;2023-05-13T06:54:38;4.37;;;2.77;;
10343;SDS011;5217;43.960;10.954;2023-05-13T06:57:06;3.73;;;2.80;;
10343;SDS011;5217;43.960;10.954;2023-05-13T06:59:35;4.97;;;3.30;;
10343;SDS011;5217;43.960;10.954;2023-05-13T07:02:03;3.63;;;3.13;;
10343;SDS011;5217;43.960;10.954;2023-05-13T07:04:35;4.50;;;2.50;;
10343;SDS011;5217;43.960;10.954;2023-05-13T07:07:05;3.73;;;2.70;;
10343;SDS011;5217;43.960;10.954;2023-05-13T07:09:33;2.50;;;2.30;;
10343;SDS011;5217;43.960;10.954;2023-05-13T07:12:01;3.53;;;2.37;;
10343;SDS011;5217;43.960;10.954;2023-05-13T07:14:30;3.20;;;2.60;;
10343;SDS011;5217;43.960;10.954;2023-05-13T07:16:58;3.43;;;2.20;;
10343;SDS011;5217;43.960;10.954;2023-05-13T07:19:28;3.40;;;2.30;;
10343;SDS011;5217;43.960;10.954;2023-05-13T07:21:57;4.43;;;2.33;;
10343;SDS011;5217;43.960;10.954;2023-05-13T07:24:26;2.80;;;2.33;;
10343;SDS011;5217;43.960;10.954;2023-05-13T07:26:55;2.40;;;2.10;;
10343;SDS011;5217;43.960;10.954;2023-05-13T07:29:23;3.93;;;2.50;;
10343;SDS011;5217;43.960;10.954;2023-05-13T07:31:53;4.47;;;2.70;;
10343;SDS011;5217;43.960;10.954;2023-05-13T07:34:21;2.80;;;2.20;;
10343;SDS011;5217;43.960;10.954;2023-05-13T07:36:49;5.13;;;2.70;;
10343;SDS011;5217;43.960;10.954;2023-05-13T07:39:18;4.97;;;2.67;;
10343;SDS011;5217;43.960;10.954;2023-05-13T07:41:48;2.53;;;2.33;;
10343;SDS011;5217;43.960;10.954;2023-05-13T07:44:16;3.03;;;2.60;;
10343;SDS011;5217;43.960;10.954;2023-05-13T07:46:45;2.67;;;2.20;;
10343;SDS011;5217;43.960;10.954;2023-05-13T07:49:14;3.90;;;2.87;;
10343;SDS011;5217;43.960;10.954;2023-05-13T07:51:43;4.53;;;2.50;;
10343;SDS011;5217;43.960;10.954;2023-05-13T07:54:11;4.90;;;2.70;;
10343;SDS011;5217;43.960;10.954;2023-05-13T07:56:39;3.63;;;2.43;;
10343;SDS011;5217;43.960;10.954;2023-05-13T07:59:11;2.93;;;2.33;;
10343;SDS011;5217;43.960;10.954;2023-05-13T08:01:41;4.70;;;2.47;;
10343;SDS011;5217;43.960;10.954;2023-05-13T08:04:09;6.83;;;2.57;;
10343;SDS011;5217;43.960;10.954;2023-05-13T08:06:38;3.87;;;2.40;;
10343;SDS011;5217;43.960;10.954;2023-05-13T08:09:06;3.40;;;2.67;;
10343;SDS011;5217;43.960;10.954;2023-05-13T08:11:37;3.77;;;2.30;;
10343;SDS011;5217;43.960;10.954;2023-05-13T08:14:05;3.93;;;2.40;;
10343;SDS011;5217;43.960;10.954;2023-05-13T08:16:35;2.93;;;2.20;;
10343;SDS011;5217;43.960;10.954;2023-05-13T08:19:04;3.03;;;2.43;;
10343;SDS011;5217;43.960;10.954;2023-05-13T08:21:32;3.20;;;2.30;;
10343;SDS011;5217;43.960;10.954;2023-05-13T08:24:00;20.27;;;17.60;;
10343;SDS011;5217;43.960;10.954;2023-05-13T08:26:29;13.67;;;10.30;;
10343;SDS011;5217;43.960;10.954;2023-05-13T08:28:57;7.83;;;6.93;;
10343;SDS011;5217;43.960;10.954;2023-05-13T08:31:25;4.93;;;3.90;;
10343;SDS011;5217;43.960;10.954;2023-05-13T08:33:55;4.10;;;2.60;;
10343;SDS011;5217;43.960;10.954;2023-05-13T08:36:24;3.63;;;2.30;;
10343;SDS011;5217;43.960;10.954;2023-05-13T08:38:52;4.17;;;2.07;;
10343;SDS011;5217;43.960;10.954;2023-05-13T08:41:20;3.23;;;2.00;;
10343;SDS011;5217;43.960;10.954;2023-05-13T08:43:49;3.07;;;1.97;;
10343;SDS011;5217;43.960;10.954;2023-05-13T08:46:20;2.07;;;1.67;;
10343;SDS011;5217;43.960;10.954;2023-05-13T08:48:51;2.73;;;1.97;;
10343;SDS011;5217;43.960;10.954;2023-05-13T08:51:22;3.43;;;1.90;;
10343;SDS011;5217;43.960;10.954;2023-05-13T08:53:51;3.33;;;1.90;;
10343;SDS011;5217;43.960;10.954;2023-05-13T08:56:21;2.50;;;2.00;;
10343;SDS011;5217;43.960;10.954;2023-05-13T08:58:53;1.57;;;1.40;;
10343;SDS011;5217;43.960;10.954;2023-05-13T09:01:23;2.30;;;1.87;;
10343;SDS011;5217;43.960;10.954;2023-05-13T09:03:54;4.83;;;1.70;;
10343;SDS011;5217;43.960;10.954;2023-05-13T09:06:27;2.15;;;1.70;;
10343;SDS011;5217;43.960;10.954;2023-05-13T09:08:55;1.80;;;1.40;;
10343;SDS011;5217;43.960;10.954;2023-05-13T09:11:23;2.60;;;1.60;;
10343;SDS011;5217;43.960;10.954;2023-05-13T09:13:55;2.60;;;1.77;;
10343;SDS011;5217;43.960;10.954;2023-05-13T09:16:26;2.25;;;1.52;;
10343;SDS011;5217;43.960;10.954;2023-05-13T09:18:56;2.75;;;1.70;;
10343;SDS011;5217;43.960;10.954;2023-05-13T09:21:28;2.50;;;1.65;;
10343;SDS011;5217;43.960;10.954;2023-05-13T09:24:04;1.88;;;1.40;;
10343;SDS011;5217;43.960;10.954;2023-05-13T09:26:36;2.22;;;1.50;;
10343;SDS011;5217;43.960;10.954;2023-05-13T09:29:15;2.00;;;1.40;;
10343;SDS011;5217;43.960;10.954;2023-05-13T09:31:45;2.85;;;1.50;;
10343;SDS011;5217;43.960;10.954;2023-05-13T09:34:22;2.33;;;1.55;;
10343;SDS011;5217;43.960;10.954;2023-05-13T09:36:58;2.00;;;1.48;;
10343;SDS011;5217;43.960;10.954;2023-05-13T09:39:27;2.75;;;1.58;;
10343;SDS011;5217;43.960;10.954;2023-05-13T09:41:59;2.00;;;1.30;;
10343;SDS011;5217;43.960;10.954;2023-05-13T09:44:30;2.10;;;1.42;;
10343;SDS011;5217;43.960;10.954;2023-05-13T09:46:59;2.42;;;1.58;;
10343;SDS011;5217;43.960;10.954;2023-05-13T09:49:29;2.70;;;1.48;;
10343;SDS011;5217;43.960;10.954;2023-05-13T09:51:59;5.43;;;1.50;;
10343;SDS011;5217;43.960;10.954;2023-05-13T09:54:32;1.95;;;1.40;;
10343;SDS011;5217;43.960;10.954;2023-05-13T09:57:02;1.92;;;1.40;;
10343;SDS011;5217;43.960;10.954;2023-05-13T09:59:31;1.65;;;1.20;;
10343;SDS011;5217;43.960;10.954;2023-05-13T10:01:59;1.77;;;1.30;;
10343;SDS011;5217;43.960;10.954;2023-05-13T10:04:32;2.25;;;1.38;;
10343;SDS011;5217;43.960;10.954;2023-05-13T10:07:02;2.53;;;1.40;;
10343;SDS011;5217;43.960;10.954;2023-05-13T10:09:33;3.25;;;1.55;;
10343;SDS011;5217;43.960;10.954;2023-05-13T10:12:03;2.08;;;1.40;;
10343;SDS011;5217;43.960;10.954;2023-05-13T10:14:34;2.17;;;1.35;;
10343;SDS011;5217;43.960;10.954;2023-05-13T10:17:04;2.13;;;1.45;;
10343;SDS011;5217;43.960;10.954;2023-05-13T10:19:33;3.83;;;1.38;;
10343;SDS011;5217;43.960;10.954;2023-05-13T10:22:03;1.85;;;1.00;;
10343;SDS011;5217;43.960;10.954;2023-05-13T10:24:33;1.45;;;1.30;;
10343;SDS011;5217;43.960;10.954;2023-05-13T10:27:04;1.33;;;1.10;;
10343;SDS011;5217;43.960;10.954;2023-05-13T10:29:33;1.30;;;1.20;;
10343;SDS011;5217;43.960;10.954;2023-05-13T10:32:04;1.33;;;1.20;;
10343;SDS011;5217;43.960;10.954;2023-05-13T10:34:34;1.40;;;1.10;;
10343;SDS011;5217;43.960;10.954;2023-05-13T10:37:12;1.20;;;1.10;;
10343;SDS011;5217;43.960;10.954;2023-05-13T10:40:01;2.30;;;1.23;;
10343;SDS011;5217;43.960;10.954;2023-05-13T10:42:48;3.75;;;1.13;;
10343;SDS011;5217;43.960;10.954;2023-05-13T10:45:26;1.30;;;1.20;;
10343;SDS011;5217;43.960;10.954;2023-05-13T10:48:03;1.85;;;1.33;;
10343;SDS011;5217;43.960;10.954;2023-05-13T10:50:34;1.73;;;1.40;;
10343;SDS011;5217;43.960;10.954;2023-05-13T10:53:08;2.25;;;1.60;;
10343;SDS011;5217;43.960;10.954;2023-05-13T10:55:45;1.90;;;1.67;;
10343;SDS011;5217;43.960;10.954;2023-05-13T10:58:18;4.22;;;1.67;;
10343;SDS011;5217;43.960;10.954;2023-05-13T11:00:49;2.00;;;1.38;;
10343;SDS011;5217;43.960;10.954;2023-05-13T11:03:27;3.90;;;1.60;;
10343;SDS011;5217;43.960;10.954;2023-05-13T11:06:00;4.78;;;1.30;;
10343;SDS011;5217;43.960;10.954;2023-05-13T11:08:44;1.75;;;1.30;;
10343;SDS011;5217;43.960;10.954;2023-05-13T11:11:23;2.13;;;1.20;;
10343;SDS011;5217;43.960;10.954;2023-05-13T11:13:54;1.95;;;1.35;;
10343;SDS011;5217;43.960;10.954;2023-05-13T11:16:28;2.28;;;1.30;;
10343;SDS011;5217;43.960;10.954;2023-05-13T11:18:57;2.95;;;1.60;;
10343;SDS011;5217;43.960;10.954;2023-05-13T11:21:28;2.72;;;1.45;;
10343;SDS011;5217;43.960;10.954;2023-05-13T11:23:59;3.00;;;1.70;;
10343;SDS011;5217;43.960;10.954;2023-05-13T11:26:42;2.58;;;1.60;;
10343;SDS011;5217;43.960;10.954;2023-05-13T11:29:14;2.50;;;1.50;;
10343;SDS011;5217;43.960;10.954;2023-05-13T11:31:53;3.05;;;1.50;;
10343;SDS011;5217;43.960;10.954;2023-05-13T11:34:26;2.45;;;1.33;;
10343;SDS011;5217;43.960;10.954;2023-05-13T11:36:55;1.67;;;1.25;;
10343;SDS011;5217;43.960;10.954;2023-05-13T11:39:26;1.25;;;1.10;;
10343;SDS011;5217;43.960;10.954;2023-05-13T11:41:54;1.60;;;1.27;;
10343;SDS011;5217;43.960;10.954;2023-05-13T11:44:23;2.17;;;1.40;;
10343;SDS011;5217;43.960;10.954;2023-05-13T11:46:53;2.63;;;1.30;;
10343;SDS011;5217;43.960;10.954;2023-05-13T11:49:29;1.80;;;1.33;;
10343;SDS011;5217;43.960;10.954;2023-05-13T11:51:58;1.48;;;1.20;;
10343;SDS011;5217;43.960;10.954;2023-05-13T11:54:28;2.90;;;1.20;;
10343;SDS011;5217;43.960;10.954;2023-05-13T11:56:57;1.98;;;1.30;;
10343;SDS011;5217;43.960;10.954;2023-05-13T11:59:25;2.55;;;1.15;;
10343;SDS011;5217;43.960;10.954;2023-05-13T12:02:07;1.42;;;1.33;;
10343;SDS011;5217;43.960;10.954;2023-05-13T12:04:35;1.20;;;1.10;;
10343;SDS011;5217;43.960;10.954;2023-05-13T12:07:04;3.20;;;1.30;;
10343;SDS011;5217;43.960;10.954;2023-05-13T12:09:34;2.80;;;1.13;;
10343;SDS011;5217;43.960;10.954;2023-05-13T12:12:02;3.05;;;1.17;;
10343;SDS011;5217;43.960;10.954;2023-05-13T12:14:31;1.88;;;1.10;;
10343;SDS011;5217;43.960;10.954;2023-05-13T12:17:00;0.90;;;0.90;;
10343;SDS011;5217;43.960;10.954;2023-05-13T12:19:29;1.00;;;0.80;;
10343;SDS011;5217;43.960;10.954;2023-05-13T12:21:58;2.22;;;0.80;;
10343;SDS011;5217;43.960;10.954;2023-05-13T12:24:27;0.60;;;0.60;;
10343;SDS011;5217;43.960;10.954;2023-05-13T12:27:06;1.75;;;0.85;;
10343;SDS011;5217;43.960;10.954;2023-05-13T12:29:40;1.55;;;0.90;;
10343;SDS011;5217;43.960;10.954;2023-05-13T12:32:09;2.72;;;1.73;;
10343;SDS011;5217;43.960;10.954;2023-05-13T12:34:37;3.15;;;1.80;;
10343;SDS011;5217;43.960;10.954;2023-05-13T12:37:09;2.55;;;1.70;;
10343;SDS011;5217;43.960;10.954;2023-05-13T12:39:38;1.90;;;1.60;;
10343;SDS011;5217;43.960;10.954;2023-05-13T12:42:17;4.00;;;1.50;;
10343;SDS011;5217;43.960;10.954;2023-05-13T12:44:45;3.03;;;1.70;;
10343;SDS011;5217;43.960;10.954;2023-05-13T12:47:14;2.13;;;1.42;;
10343;SDS011;5217;43.960;10.954;2023-05-13T12:49:51;1.98;;;1.60;;
10343;SDS011;5217;43.960;10.954;2023-05-13T12:52:20;2.63;;;1.80;;
10343;SDS011;5217;43.960;10.954;2023-05-13T12:54:48;4.13;;;1.48;;
10343;SDS011;5217;43.960;10.954;2023-05-13T12:57:18;1.73;;;1.30;;
10343;SDS011;5217;43.960;10.954;2023-05-13T12:59:46;3.22;;;1.08;;
10343;SDS011;5217;43.960;10.954;2023-05-13T13:02:15;3.20;;;1.15;;
10343;SDS011;5217;43.960;10.954;2023-05-13T13:04:43;1.95;;;1.40;;
10343;SDS011;5217;43.960;10.954;2023-05-13T13:07:11;2.47;;;1.60;;
10343;SDS011;5217;43.960;10.954;2023-05-13T13:09:40;2.75;;;1.80;;
10343;SDS011;5217;43.960;10.954;2023-05-13T13:12:08;1.80;;;1.70;;
10343;SDS011;5217;43.960;10.954;2023-05-13T13:14:38;2.58;;;1.98;;
10343;SDS011;5217;43.960;10.954;2023-05-13T13:17:06;3.58;;;2.60;;
10343;SDS011;5217;43.960;10.954;2023-05-13T13:19:34;2.80;;;2.45;;
10343;SDS011;5217;43.960;10.954;2023-05-13T13:22:03;1.80;;;1.67;;
10343;SDS011;5217;43.960;10.954;2023-05-13T13:24:31;3.92;;;1.67;;
10343;SDS011;5217;43.960;10.954;2023-05-13T13:27:00;2.13;;;1.30;;
10343;SDS011;5217;43.960;10.954;2023-05-13T13:29:29;1.95;;;1.02;;
10343;SDS011;5217;43.960;10.954;2023-05-13T13:31:59;1.00;;;0.90;;
10343;SDS011;5217;43.960;10.954;2023-05-13T13:34:27;1.73;;;1.20;;
10343;SDS011;5217;43.960;10.954;2023-05-13T13:36:55;1.63;;;1.50;;
10343;SDS011;5217;43.960;10.954;2023-05-13T13:39:24;2.20;;;1.20;;
10343;SDS011;5217;43.960;10.954;2023-05-13T13:41:53;1.52;;;1.20;;
10343;SDS011;5217;43.960;10.954;2023-05-13T13:44:22;1.15;;;1.05;;
10343;SDS011;5217;43.960;10.954;2023-05-13T13:46:53;1.20;;;1.10;;
10343;SDS011;5217;43.960;10.954;2023-05-13T13:49:23;2.95;;;1.27;;
10343;SDS011;5217;43.960;10.954;2023-05-13T13:51:51;1.63;;;1.40;;
10343;SDS011;5217;43.960;10.954;2023-05-13T13:54:20;3.72;;;1.50;;
10343;SDS011;5217;43.960;10.954;2023-05-13T13:56:48;1.70;;;1.60;;
10343;SDS011;5217;43.960;10.954;2023-05-13T13:59:16;1.95;;;1.75;;
10343;SDS011;5217;43.960;10.954;2023-05-13T14:01:45;2.03;;;1.73;;
10343;SDS011;5217;43.960;10.954;2023-05-13T14:04:14;2.15;;;1.33;;
10343;SDS011;5217;43.960;10.954;2023-05-13T14:06:46;1.52;;;1.40;;
10343;SDS011;5217;43.960;10.954;2023-05-13T14:09:14;2.93;;;1.40;;
10343;SDS011;5217;43.960;10.954;2023-05-13T14:11:43;2.47;;;1.60;;
10343;SDS011;5217;43.960;10.954;2023-05-13T14:14:11;1.60;;;1.23;;
10343;SDS011;5217;43.960;10.954;2023-05-13T14:16:40;2.15;;;1.50;;
10343;SDS011;5217;43.960;10.954;2023-05-13T14:19:10;1.67;;;1.30;;
10343;SDS011;5217;43.960;10.954;2023-05-13T14:21:39;1.55;;;1.45;;
10343;SDS011;5217;43.960;10.954;2023-05-13T14:24:08;2.80;;;1.55;;
10343;SDS011;5217;43.960;10.954;2023-05-13T14:26:37;2.10;;;1.50;;
10343;SDS011;5217;43.960;10.954;2023-05-13T14:29:05;3.00;;;1.38;;
10343;SDS011;5217;43.960;10.954;2023-05-13T14:31:34;1.70;;;1.58;;
10343;SDS011;5217;43.960;10.954;2023-05-13T14:34:02;1.40;;;1.30;;
10343;SDS011;5217;43.960;10.954;2023-05-13T14:36:33;1.40;;;1.30;;
10343;SDS011;5217;43.960;10.954;2023-05-13T14:39:02;1.33;;;1.20;;
10343;SDS011;5217;43.960;10.954;2023-05-13T14:41:32;1.90;;;1.50;;
10343;SDS011;5217;43.960;10.954;2023-05-13T14:44:00;1.70;;;1.60;;
10343;SDS011;5217;43.960;10.954;2023-05-13T14:46:28;2.25;;;1.88;;
10343;SDS011;5217;43.960;10.954;2023-05-13T14:48:59;2.38;;;1.50;;
10343;SDS011;5217;43.960;10.954;2023-05-13T14:51:27;2.00;;;1.50;;
10343;SDS011;5217;43.960;10.954;2023-05-13T14:53:55;1.90;;;1.40;;
10343;SDS011;5217;43.960;10.954;2023-05-13T14:56:24;1.60;;;1.50;;
10343;SDS011;5217;43.960;10.954;2023-05-13T14:58:54;2.88;;;2.17;;
10343;SDS011;5217;43.960;10.954;2023-05-13T15:01:23;2.38;;;2.00;;
10343;SDS011;5217;43.960;10.954;2023-05-13T15:03:51;1.70;;;1.60;;